Time;durP1;ratioP1;P1;durP2;ratioP2;P2;SDS_P1;SDS_P2;PMS_P1;PMS_P2;Temp;Humidity;BMP_temperature;BMP_pressure;BME280_temperature;BME280_humidity;BME280_pressure;Samples;Min_cycle;Max_cycle;Signal;HPM_P1;HPM_P2
2021/12/07 00:01:43;;;;;;;3.65;1.88;;;;;;;4.21;77.98;94157.50;5004149;28;20022;-77
2021/12/07 00:04:09;;;;;;;1.77;1.50;;;;;;;4.27;76.88;94146.22;5005076;28;20499;-77
2021/12/07 00:06:35;;;;;;;1.92;1.50;;;;;;;4.23;77.40;94160.84;5004528;28;20508;-79
2021/12/07 00:09:04;;;;;;;1.77;1.40;;;;;;;4.19;76.99;94159.53;5004702;28;20034;-78
2021/12/07 00:11:30;;;;;;;3.88;1.58;;;;;;;4.11;77.84;94163.00;5005385;28;20096;-77
2021/12/07 00:13:57;;;;;;;2.28;1.45;;;;;;;4.19;78.11;94163.00;5009740;28;20451;-79
2021/12/07 00:16:23;;;;;;;2.28;1.50;;;;;;;4.27;76.97;94172.75;5008274;28;20073;-78
2021/12/07 00:18:48;;;;;;;2.53;1.70;;;;;;;4.33;76.84;94172.09;5009641;28;20060;-78
2021/12/07 00:21:17;;;;;;;2.30;1.60;;;;;;;4.27;76.67;94177.25;5003151;28;20033;-78
2021/12/07 00:23:42;;;;;;;2.33;1.83;;;;;;;4.15;77.72;94168.81;5009831;28;20026;-78
2021/12/07 00:26:09;;;;;;;2.53;1.70;;;;;;;4.25;76.49;94166.81;5006853;28;20124;-78
2021/12/07 00:28:35;;;;;;;3.03;2.00;;;;;;;4.10;78.06;94168.47;5009069;28;20455;-78
2021/12/07 00:31:10;;;;;;;2.85;2.00;;;;;;;4.19;77.76;94162.19;5008307;28;20033;-78
2021/12/07 00:33:44;;;;;;;2.35;1.73;;;;;;;4.18;77.64;94168.47;5008092;28;20034;-77
2021/12/07 00:36:10;;;;;;;2.58;1.70;;;;;;;4.17;76.74;94156.22;5008329;28;20069;-78
2021/12/07 00:38:35;;;;;;;2.28;1.70;;;;;;;4.20;76.75;94166.47;5007697;28;20501;-77
2021/12/07 00:41:02;;;;;;;2.33;1.80;;;;;;;4.28;77.02;94173.59;5008428;28;20045;-77
2021/12/07 00:43:29;;;;;;;2.30;1.60;;;;;;;4.25;76.94;94179.25;5008363;28;20029;-78
2021/12/07 00:45:57;;;;;;;2.47;1.58;;;;;;;4.17;76.68;94172.13;5007257;28;20026;-79
2021/12/07 00:48:24;;;;;;;3.88;1.83;;;;;;;4.15;76.81;94179.41;5008896;28;20034;-78
2021/12/07 00:50:50;;;;;;;5.90;1.80;;;;;;;4.14;77.10;94178.63;5006912;28;20057;-77
2021/12/07 00:53:15;;;;;;;2.53;1.70;;;;;;;4.20;77.00;94172.63;5008712;28;20435;-77
2021/12/07 00:55:43;;;;;;;2.20;1.70;;;;;;;4.27;77.32;94177.25;5007826;28;20401;-77
2021/12/07 00:58:16;;;;;;;2.17;1.70;;;;;;;4.26;75.67;94173.78;5007960;28;20061;-77
2021/12/07 01:00:42;;;;;;;2.50;1.75;;;;;;;4.28;75.48;94178.91;5007709;28;20038;-78
2021/12/07 01:03:08;;;;;;;2.15;1.60;;;;;;;4.30;74.97;94183.06;5006666;28;20408;-77
2021/12/07 01:05:35;;;;;;;3.50;1.70;;;;;;;4.21;75.59;94178.75;5008302;28;20038;-78
2021/12/07 01:26:51;;;;;;;1.80;1.00;;;;;;;3.74;76.64;94167.03;5008815;28;20041;-77
2021/12/07 01:29:19;;;;;;;2.28;1.50;;;;;;;3.82;76.19;94165.19;5008675;28;20034;-78
2021/12/07 01:32:01;;;;;;;1.70;1.13;;;;;;;3.85;76.49;94172.00;5008888;28;20064;-78
2021/12/07 01:34:57;;;;;;;1.75;1.25;;;;;;;3.75;76.90;94168.69;5007437;28;20121;-77
2021/12/07 02:00:36;;;;;;;3.15;1.20;;;;;;;3.53;76.33;94150.59;5007097;28;20557;-78
2021/12/07 02:03:02;;;;;;;1.40;1.10;;;;;;;3.51;76.40;94149.97;5006914;28;20121;-78
2021/12/07 02:05:28;;;;;;;2.55;1.20;;;;;;;3.63;76.79;94139.03;5007544;28;20095;-78
2021/12/07 02:07:53;;;;;;;2.13;1.30;;;;;;;3.69;76.25;94125.09;5007125;28;20026;-77
2021/12/07 02:10:24;;;;;;;1.80;1.15;;;;;;;3.63;75.75;94123.94;5007700;28;20065;-78
2021/12/07 02:12:51;;;;;;;2.17;1.20;;;;;;;3.66;76.13;94128.91;5006017;28;20038;-77
2021/12/07 02:15:21;;;;;;;1.75;1.25;;;;;;;3.66;75.94;94118.28;5007240;28;20045;-79
2021/12/07 02:17:47;;;;;;;1.90;1.20;;;;;;;3.64;75.43;94108.84;5007077;28;20061;-77
2021/12/07 02:20:12;;;;;;;1.27;1.13;;;;;;;3.62;75.61;94102.88;4990550;28;20411;-79
2021/12/07 02:22:38;;;;;;;1.70;1.00;;;;;;;3.58;75.90;94108.53;5006746;28;20025;-78
2021/12/07 02:25:04;;;;;;;2.72;1.10;;;;;;;3.52;76.24;94118.97;5006708;28;20026;-78
2021/12/07 02:27:30;;;;;;;4.97;1.27;;;;;;;3.42;75.83;94127.91;5007543;28;20025;-79
2021/12/07 02:29:55;;;;;;;1.50;1.15;;;;;;;3.27;76.39;94133.06;5007870;28;20053;-77
2021/12/07 02:32:21;;;;;;;1.67;0.93;;;;;;;3.23;76.78;94118.47;5007878;28;20482;-79
2021/12/07 02:34:55;;;;;;;1.65;1.13;;;;;;;3.25;76.22;94127.06;5004332;28;20026;-78
2021/12/07 02:37:28;;;;;;;1.63;1.08;;;;;;;3.13;76.93;94110.66;5007938;28;20030;-77
2021/12/07 02:39:53;;;;;;;4.65;1.20;;;;;;;3.11;76.62;94115.31;5006713;28;20559;-79
2021/12/07 02:42:18;;;;;;;2.33;1.15;;;;;;;3.13;76.41;94101.91;5007377;28;20038;-77
2021/12/07 02:44:44;;;;;;;1.92;1.10;;;;;;;3.12;77.19;94101.06;5006933;28;20477;-77
2021/12/07 02:47:09;;;;;;;1.55;1.20;;;;;;;3.11;77.05;94107.38;5007173;28;20088;-78
2021/12/07 02:49:35;;;;;;;1.98;1.00;;;;;;;3.13;77.11;94102.72;5007116;28;20469;-77
2021/12/07 02:52:02;;;;;;;1.08;0.90;;;;;;;3.06;77.20;94107.81;5006863;28;20030;-78
2021/12/07 02:54:28;;;;;;;1.85;1.10;;;;;;;3.11;76.93;94114.47;5008053;28;20034;-77
2021/12/07 02:56:53;;;;;;;1.48;1.00;;;;;;;3.03;76.39;94117.94;5005660;28;20024;-79
2021/12/07 02:59:20;;;;;;;1.65;1.05;;;;;;;3.07;76.54;94114.81;5007693;28;20030;-78
2021/12/07 03:01:53;;;;;;;1.48;0.90;;;;;;;3.11;76.25;94122.41;5006226;28;20416;-78
2021/12/07 03:04:24;;;;;;;1.90;1.10;;;;;;;3.16;76.43;94106.88;5007005;28;20038;-79
2021/12/07 03:28:49;;;;;;;1.95;1.13;;;;;;;2.70;77.21;94093.03;5005389;28;20081;-78
2021/12/07 03:31:15;;;;;;;1.30;1.10;;;;;;;2.70;76.87;94097.50;4990416;28;20027;-78
2021/12/07 03:33:41;;;;;;;1.00;0.90;;;;;;;2.72;76.75;94090.22;4987784;28;20505;-78
2021/12/07 03:36:07;;;;;;;1.30;1.02;;;;;;;2.76;76.38;94091.56;4986042;28;20030;-78
2021/12/07 03:38:32;;;;;;;1.33;1.10;;;;;;;2.67;77.45;94100.47;4999088;28;20038;-79
2021/12/07 03:40:58;;;;;;;1.75;1.40;;;;;;;2.59;77.58;94096.81;5004694;28;20042;-78
2021/12/07 03:43:23;;;;;;;1.50;1.10;;;;;;;2.62;76.96;94095.66;5005074;28;20417;-78
2021/12/07 03:45:49;;;;;;;2.50;1.20;;;;;;;2.67;77.10;94098.66;5003856;28;20420;-79
2021/12/07 03:48:14;;;;;;;1.48;1.30;;;;;;;2.59;76.93;94094.19;5009794;28;20385;-78
2021/12/07 03:50:40;;;;;;;1.60;1.17;;;;;;;2.58;76.92;94086.38;5011109;28;20410;-79
2021/12/07 03:53:05;;;;;;;1.95;1.20;;;;;;;2.49;76.88;94095.28;5008379;28;20022;-77
2021/12/07 03:55:30;;;;;;;1.60;1.10;;;;;;;2.55;76.85;94087.53;5011000;28;20026;-78
2021/12/07 03:57:56;;;;;;;1.45;1.20;;;;;;;2.55;76.66;94081.41;5009592;28;20026;-78
2021/12/07 04:00:23;;;;;;;1.50;1.30;;;;;;;2.25;77.33;94087.09;5010128;28;20045;-78
2021/12/07 04:02:51;;;;;;;1.58;1.30;;;;;;;2.38;77.97;94081.34;5010028;28;20401;-78
2021/12/07 04:05:18;;;;;;;1.73;1.30;;;;;;;2.44;77.16;94086.00;5008759;28;20473;-79
2021/12/07 04:07:43;;;;;;;1.67;1.20;;;;;;;2.45;77.59;94094.78;5010670;28;20488;-78
2021/12/07 04:10:10;;;;;;;1.65;1.23;;;;;;;2.52;77.05;94090.50;5008124;28;20045;-77
2021/12/07 04:12:35;;;;;;;2.78;1.58;;;;;;;2.57;76.66;94092.66;5010731;28;20029;-76
2021/12/07 04:15:01;;;;;;;1.73;1.40;;;;;;;2.47;76.78;94093.63;5008973;28;20052;-76
2021/12/07 04:17:26;;;;;;;1.38;1.20;;;;;;;2.52;76.06;94087.84;5010363;28;20037;-76
2021/12/07 04:19:52;;;;;;;2.92;1.30;;;;;;;2.51;76.22;94088.00;4991872;28;20050;-77
2021/12/07 04:22:17;;;;;;;1.45;1.20;;;;;;;2.41;76.15;94088.13;5008310;28;20022;-76
2021/12/07 04:24:43;;;;;;;2.15;1.40;;;;;;;2.35;76.33;94085.13;5009943;28;20034;-78
2021/12/07 04:27:08;;;;;;;1.50;1.33;;;;;;;2.44;76.33;94095.75;4998388;28;20037;-77
2021/12/07 04:29:33;;;;;;;1.88;1.38;;;;;;;2.41;76.54;94099.56;5009137;28;20030;-79
2021/12/07 04:31:59;;;;;;;1.65;1.35;;;;;;;2.35;76.69;94100.19;5008354;28;20022;-78
2021/12/07 04:34:24;;;;;;;1.60;1.33;;;;;;;2.37;76.43;94103.50;5010963;28;20026;-78
2021/12/07 04:36:50;;;;;;;2.00;1.50;;;;;;;2.39;76.32;94100.69;5009184;28;20022;-77
2021/12/07 04:39:15;;;;;;;3.00;1.77;;;;;;;2.33;76.46;94091.59;5009648;28;20033;-78
2021/12/07 04:41:43;;;;;;;3.08;1.60;;;;;;;2.24;76.85;94081.97;5009533;28;20057;-78
2021/12/07 04:44:09;;;;;;;3.05;2.03;;;;;;;2.26;76.11;94088.75;5009211;28;20091;-77
2021/12/07 04:46:42;;;;;;;2.47;1.92;;;;;;;2.26;76.20;94094.03;5009745;28;20030;-79
2021/12/07 04:59:56;;;;;;;2.45;1.80;;;;;;;1.93;76.92;94091.25;5009431;28;20456;-78
2021/12/07 05:02:21;;;;;;;3.42;1.90;;;;;;;1.85;77.09;94090.19;5007605;28;20521;-78
2021/12/07 05:04:47;;;;;;;2.72;1.98;;;;;;;1.93;77.27;94091.25;5010811;28;20034;-79
2021/12/07 05:07:22;;;;;;;2.95;1.90;;;;;;;1.89;77.40;94095.16;5007117;28;20430;-78
2021/12/07 05:14:41;;;;;;;2.10;1.60;;;;;;;1.90;77.17;94084.47;5007026;28;20100;-79
2021/12/07 05:38:37;;;;;;;2.17;1.60;;;;;;;1.66;76.98;94093.06;5008803;28;20037;-78
2021/12/07 05:41:05;;;;;;;2.08;1.65;;;;;;;1.72;77.56;94087.16;5003630;28;20026;-78
2021/12/07 05:43:31;;;;;;;1.92;1.50;;;;;;;1.67;77.61;94092.06;5005959;28;20026;-79
2021/12/07 05:45:56;;;;;;;2.33;1.60;;;;;;;1.72;77.02;94095.09;5006256;28;20084;-78
2021/12/07 05:48:22;;;;;;;2.60;1.92;;;;;;;1.58;77.67;94085.91;5006492;28;20596;-78
2021/12/07 05:50:47;;;;;;;2.13;1.58;;;;;;;1.70;76.90;94082.03;5004712;28;20641;-78
2021/12/07 05:53:13;;;;;;;2.47;1.70;;;;;;;1.75;76.94;94068.34;5006455;28;20417;-79
2021/12/07 05:55:38;;;;;;;2.15;1.60;;;;;;;1.68;76.74;94070.78;5008409;28;20022;-79
2021/12/07 05:58:04;;;;;;;2.20;1.73;;;;;;;1.64;76.62;94071.22;5006878;28;20116;-79
2021/12/07 06:00:31;;;;;;;2.60;1.90;;;;;;;1.64;77.02;94080.00;5009061;28;20581;-79
2021/12/07 06:03:01;;;;;;;2.25;1.80;;;;;;;1.60;77.76;94079.47;5008949;28;20022;-78
2021/12/07 06:05:27;;;;;;;2.65;1.90;;;;;;;1.62;76.87;94078.47;5012423;28;20106;-79
2021/12/07 06:07:53;;;;;;;2.53;1.90;;;;;;;1.50;77.29;94086.66;5005983;28;20532;-78
2021/12/07 06:10:19;;;;;;;3.92;2.70;;;;;;;1.45;78.43;94089.78;5006846;28;20049;-78
2021/12/07 06:12:44;;;;;;;5.57;2.22;;;;;;;1.51;77.43;94085.69;5007905;28;20037;-79
2021/12/07 06:15:10;;;;;;;2.80;2.10;;;;;;;1.55;77.68;94089.69;5007670;28;20052;-79
2021/12/07 06:17:36;;;;;;;2.50;2.03;;;;;;;1.37;77.37;94086.25;5007822;28;20029;-81
2021/12/07 06:20:03;;;;;;;2.50;2.00;;;;;;;1.54;77.41;94095.97;5006234;28;20034;-80
2021/12/07 06:22:28;;;;;;;3.17;2.10;;;;;;;1.45;77.59;94091.59;5006410;28;20160;-81
2021/12/07 06:24:54;;;;;;;3.67;2.63;;;;;;;1.44;77.51;94089.91;5006827;28;20520;-80
2021/12/07 06:27:19;;;;;;;3.90;2.10;;;;;;;1.53;77.02;94090.81;5008410;28;20509;-79
2021/12/07 06:29:44;;;;;;;3.67;2.30;;;;;;;1.62;77.62;94094.34;5005631;28;20026;-81
2021/12/07 06:32:10;;;;;;;3.70;2.60;;;;;;;1.56;76.92;94083.44;5006743;28;20041;-81
2021/12/07 06:34:35;;;;;;;3.60;2.38;;;;;;;1.55;77.49;94088.84;5006535;28;20037;-79
2021/12/07 06:37:01;;;;;;;4.75;2.70;;;;;;;1.46;77.62;94095.91;5006377;28;20025;-79
2021/12/07 06:39:27;;;;;;;4.97;2.88;;;;;;;1.56;76.85;94091.34;5007257;28;20097;-80
2021/12/07 06:41:52;;;;;;;3.80;2.50;;;;;;;1.45;77.29;94091.59;5006107;28;20597;-80
2021/12/07 06:44:17;;;;;;;3.95;2.67;;;;;;;1.45;77.43;94088.97;5007600;28;20451;-81
2021/12/07 06:46:44;;;;;;;4.57;2.40;;;;;;;1.27;77.68;94087.19;5004770;28;20033;-80
2021/12/07 06:49:09;;;;;;;4.30;2.90;;;;;;;1.30;77.63;94102.72;5005494;28;20036;-78
2021/12/07 06:51:34;;;;;;;4.93;3.22;;;;;;;1.38;77.93;94095.81;5016582;28;20026;-79
2021/12/07 06:54:00;;;;;;;4.07;2.67;;;;;;;1.47;77.36;94098.38;5004410;28;20033;-77
2021/12/07 06:56:28;;;;;;;3.17;2.40;;;;;;;1.33;77.64;94102.41;5006721;28;20033;-79
2021/12/07 06:58:53;;;;;;;3.85;2.75;;;;;;;1.39;77.91;94094.88;5000421;28;20018;-79
2021/12/07 07:01:19;;;;;;;2.70;1.88;;;;;;;1.48;77.05;94096.56;4988202;28;20029;-78
2021/12/07 07:03:44;;;;;;;2.92;2.05;;;;;;;1.54;76.66;94095.97;5001084;28;20025;-79
2021/12/07 07:06:10;;;;;;;2.70;2.00;;;;;;;1.55;77.04;94094.97;4999437;28;20033;-78
2021/12/07 07:08:36;;;;;;;2.08;1.65;;;;;;;1.45;76.49;94096.88;4987497;28;20018;-79
2021/12/07 07:11:03;;;;;;;3.03;2.50;;;;;;;1.53;76.97;94102.22;4990780;28;20029;-79
2021/12/07 07:13:28;;;;;;;3.75;2.22;;;;;;;1.54;76.70;94103.88;4997481;28;20229;-79
2021/12/07 07:15:53;;;;;;;2.72;2.20;;;;;;;1.54;76.50;94095.13;4997953;28;20095;-79
2021/12/07 07:18:19;;;;;;;2.88;1.90;;;;;;;1.59;76.89;94096.31;4997640;28;20025;-77
2021/12/07 07:20:44;;;;;;;2.90;2.00;;;;;;;1.44;76.69;94097.84;5005413;28;20033;-78
2021/12/07 07:23:11;;;;;;;4.15;2.10;;;;;;;1.41;77.60;94092.88;5007121;28;20033;-80
2021/12/07 07:25:36;;;;;;;4.82;2.08;;;;;;;1.33;77.18;94094.50;5003807;28;20033;-77
2021/12/07 07:28:03;;;;;;;2.88;2.30;;;;;;;1.47;76.87;94094.91;5006903;28;20034;-80
2021/12/07 07:30:28;;;;;;;2.90;2.20;;;;;;;1.47;77.38;94102.81;5006637;28;20038;-78
2021/12/07 07:32:54;;;;;;;2.78;1.90;;;;;;;1.39;77.63;94097.50;5005113;28;20500;-79
2021/12/07 07:35:20;;;;;;;3.22;2.30;;;;;;;1.15;78.37;94102.41;5005525;28;20022;-79
2021/12/07 07:37:45;;;;;;;2.97;2.03;;;;;;;1.29;77.64;94101.03;5004107;28;20080;-78
2021/12/07 07:40:13;;;;;;;3.00;1.83;;;;;;;1.27;78.40;94100.38;5006551;28;20382;-79
2021/12/07 07:42:38;;;;;;;3.42;2.17;;;;;;;1.30;78.53;94105.34;5005855;28;20113;-80
2021/12/07 07:45:05;;;;;;;4.13;2.17;;;;;;;1.24;78.04;94116.53;5006543;28;20026;-80
2021/12/07 07:47:30;;;;;;;3.83;2.13;;;;;;;1.27;77.98;94103.03;5006583;28;20045;-81
2021/12/07 07:49:55;;;;;;;3.53;2.20;;;;;;;1.38;78.24;94098.47;5006630;28;20378;-81
2021/12/07 07:52:21;;;;;;;3.60;2.28;;;;;;;1.41;77.74;94108.72;4989036;28;20022;-79
2021/12/07 07:54:46;;;;;;;2.70;1.90;;;;;;;1.45;77.05;94102.16;5004795;28;20022;-80
2021/12/07 07:57:12;;;;;;;2.75;1.85;;;;;;;1.45;77.06;94099.53;5006872;28;20405;-80
2021/12/07 07:59:39;;;;;;;2.63;1.98;;;;;;;1.45;77.43;94105.63;5005911;28;20477;-81
2021/12/07 08:02:05;;;;;;;3.05;2.00;;;;;;;1.44;77.53;94097.84;5006926;28;20033;-82
2021/12/07 08:04:30;;;;;;;2.88;1.90;;;;;;;1.46;76.69;94104.66;5004479;28;20049;-81
2021/12/07 08:06:56;;;;;;;3.58;2.05;;;;;;;1.41;76.81;94103.44;5006715;28;20037;-82
2021/12/07 08:09:21;;;;;;;2.30;1.70;;;;;;;1.47;76.70;94098.38;5006275;28;20026;-79
2021/12/07 08:11:47;;;;;;;9.02;2.40;;;;;;;1.42;77.13;94100.66;5006349;28;20030;-81
2021/12/07 08:14:12;;;;;;;2.42;1.80;;;;;;;1.20;77.77;94109.88;5006350;28;20033;-80
2021/12/07 08:16:38;;;;;;;2.58;2.20;;;;;;;1.17;78.36;94104.91;5003935;28;20046;-81
2021/12/07 08:19:03;;;;;;;2.95;1.83;;;;;;;1.19;78.33;94116.16;5005394;28;20033;-80
2021/12/07 08:21:29;;;;;;;2.97;1.75;;;;;;;1.26;77.48;94111.91;5005648;28;20500;-81
2021/12/07 08:23:54;;;;;;;5.20;2.50;;;;;;;1.29;77.22;94105.50;5006751;28;20025;-80
2021/12/07 08:26:21;;;;;;;4.22;2.03;;;;;;;1.17;78.15;94124.22;5005171;28;20030;-80
2021/12/07 08:28:46;;;;;;;3.45;2.10;;;;;;;1.17;77.35;94120.75;5006731;28;20056;-80
2021/12/07 08:31:12;;;;;;;2.70;2.05;;;;;;;1.15;77.60;94115.63;5006074;28;20724;-79
2021/12/07 08:33:37;;;;;;;3.25;1.70;;;;;;;1.05;78.36;94112.25;4989924;28;20036;-80
2021/12/07 08:36:03;;;;;;;2.83;1.80;;;;;;;0.99;78.92;94116.31;5009888;28;20022;-80
2021/12/07 08:38:29;;;;;;;2.45;1.98;;;;;;;0.92;79.40;94120.53;5009250;28;20034;-79
2021/12/07 08:40:54;;;;;;;3.72;2.10;;;;;;;0.89;79.26;94128.75;5010595;28;20034;-79
2021/12/07 08:43:24;;;;;;;3.38;2.03;;;;;;;0.91;79.60;94119.69;5008610;28;20500;-80
2021/12/07 08:45:50;;;;;;;2.83;1.90;;;;;;;0.95;79.39;94121.03;5010052;28;20113;-81
2021/12/07 08:48:16;;;;;;;2.75;2.03;;;;;;;0.98;78.54;94126.03;5007756;28;20044;-79
2021/12/07 08:50:43;;;;;;;2.70;2.10;;;;;;;1.00;78.46;94138.25;5008312;28;20041;-80
2021/12/07 08:53:11;;;;;;;4.57;2.20;;;;;;;0.96;79.53;94135.94;5008424;28;20030;-80
2021/12/07 09:01:05;;;;;;;4.38;2.20;;;;;;;0.75;79.88;94136.19;5009111;28;20527;-81
2021/12/07 09:03:30;;;;;;;4.05;2.40;;;;;;;0.78;80.32;94146.47;5009162;28;20087;-81
2021/12/07 09:05:56;;;;;;;3.45;2.10;;;;;;;0.81;79.74;94145.31;5008046;28;20113;-80
2021/12/07 09:08:21;;;;;;;4.05;2.40;;;;;;;0.75;79.42;94141.47;5007097;28;20045;-82
2021/12/07 09:10:47;;;;;;;2.65;2.03;;;;;;;0.65;80.07;94151.25;5010046;28;20388;-81
2021/12/07 09:13:12;;;;;;;4.70;2.63;;;;;;;0.72;80.34;94147.06;5007907;28;20091;-80
2021/12/07 09:15:38;;;;;;;3.40;2.28;;;;;;;0.69;80.10;94152.63;5009487;28;20080;-79
2021/12/07 09:18:03;;;;;;;3.00;2.00;;;;;;;0.71;80.50;94148.03;5006567;28;20038;-82
2021/12/07 09:20:30;;;;;;;4.47;2.30;;;;;;;0.74;79.97;94145.09;5007383;28;20091;-78
2021/12/07 09:22:55;;;;;;;2.72;2.03;;;;;;;0.81;80.49;94151.44;5006862;28;20131;-80
2021/12/07 09:25:20;;;;;;;2.65;2.08;;;;;;;0.88;80.14;94140.28;5007243;28;20504;-80
2021/12/07 09:27:46;;;;;;;3.25;2.22;;;;;;;0.90;79.68;94133.88;5008826;28;20571;-80
2021/12/07 09:30:13;;;;;;;2.00;1.77;;;;;;;0.88;79.03;94130.56;5007880;28;20022;-81
2021/12/07 09:32:38;;;;;;;2.70;2.00;;;;;;;0.92;78.86;94129.28;5007807;28;20029;-79
2021/12/07 09:35:06;;;;;;;3.05;2.10;;;;;;;0.93;78.84;94128.31;5007934;28;20432;-80
2021/12/07 09:37:32;;;;;;;4.20;2.60;;;;;;;0.94;79.23;94118.56;5008462;28;20045;-79
2021/12/07 09:39:57;;;;;;;3.47;2.58;;;;;;;0.98;78.42;94135.78;5008379;28;20032;-81
2021/12/07 09:42:22;;;;;;;5.65;3.10;;;;;;;0.99;79.07;94132.16;5008246;28;20477;-81
2021/12/07 09:44:48;;;;;;;6.88;3.78;;;;;;;0.96;78.38;94132.44;5007967;28;20029;-80
2021/12/07 09:47:13;;;;;;;7.57;3.70;;;;;;;0.93;78.74;94125.66;5008247;28;20061;-79
2021/12/07 09:49:39;;;;;;;5.47;3.25;;;;;;;0.85;79.58;94121.09;5006933;28;20444;-80
2021/12/07 09:52:04;;;;;;;5.40;2.70;;;;;;;0.89;79.39;94126.13;5006071;28;20080;-79
2021/12/07 09:54:30;;;;;;;4.93;2.40;;;;;;;0.94;79.65;94122.03;5008671;28;20412;-80
2021/12/07 09:56:55;;;;;;;3.95;2.70;;;;;;;0.91;79.14;94118.84;5007437;28;20029;-80
2021/12/07 09:59:20;;;;;;;4.75;2.60;;;;;;;0.95;79.26;94109.69;5008274;28;20780;-79
2021/12/07 10:01:46;;;;;;;3.55;2.47;;;;;;;0.93;79.56;94120.38;5007747;28;20030;-82
2021/12/07 10:04:11;;;;;;;5.35;2.55;;;;;;;0.97;79.37;94126.19;5007834;28;20033;-80
2021/12/07 10:06:37;;;;;;;6.72;2.60;;;;;;;0.95;79.61;94120.25;5007860;28;20026;-79
2021/12/07 10:09:03;;;;;;;3.50;2.60;;;;;;;0.98;78.95;94112.00;5006128;28;20508;-80
2021/12/07 10:11:28;;;;;;;3.42;2.42;;;;;;;0.96;78.50;94116.59;5006821;28;20030;-80
2021/12/07 10:13:54;;;;;;;9.07;2.80;;;;;;;0.97;78.30;94118.25;5007122;28;20424;-80
2021/12/07 10:16:21;;;;;;;5.85;2.80;;;;;;;0.97;78.99;94120.91;5007897;28;20443;-79
2021/12/07 10:18:46;;;;;;;3.13;2.33;;;;;;;0.90;79.00;94122.50;5007174;28;20053;-80
2021/12/07 10:21:16;;;;;;;4.18;2.47;;;;;;;0.96;79.24;94120.09;5007735;28;20050;-79
2021/12/07 10:23:49;;;;;;;7.30;2.95;;;;;;;1.04;78.54;94119.31;5006271;28;20026;-79
2021/12/07 10:26:20;;;;;;;5.00;3.05;;;;;;;1.09;78.93;94117.06;5007398;28;20424;-80
2021/12/07 10:28:47;;;;;;;4.28;2.78;;;;;;;1.05;78.46;94109.59;5007715;28;20041;-80
2021/12/07 10:31:17;;;;;;;4.07;2.60;;;;;;;1.02;78.88;94116.00;5006633;28;20021;-79
2021/12/07 10:33:53;;;;;;;4.07;2.97;;;;;;;0.95;78.85;94101.75;5007697;28;20026;-80
2021/12/07 10:36:42;;;;;;;4.55;3.05;;;;;;;0.91;78.86;94103.03;5007534;28;20271;-80
2021/12/07 10:39:07;;;;;;;3.92;2.40;;;;;;;0.81;79.67;94101.28;5007502;28;20030;-79
2021/12/07 10:41:34;;;;;;;4.63;2.63;;;;;;;0.85;78.71;94101.81;5007717;28;20124;-79
2021/12/07 10:44:11;;;;;;;5.47;3.13;;;;;;;0.75;79.60;94099.25;5005471;28;20080;-80
2021/12/07 10:46:36;;;;;;;4.25;2.83;;;;;;;0.79;80.09;94092.69;5006709;28;20030;-81
2021/12/07 10:49:28;;;;;;;4.72;2.92;;;;;;;0.78;80.05;94084.91;5006713;28;20030;-81
2021/12/07 10:52:02;;;;;;;3.65;2.70;;;;;;;0.85;79.75;94085.97;5006661;28;20107;-82
2021/12/07 10:54:29;;;;;;;3.22;2.20;;;;;;;0.93;78.84;94095.78;5007586;28;20020;-80
2021/12/07 10:56:55;;;;;;;6.60;2.63;;;;;;;0.88;78.60;94090.97;5005437;28;20088;-81
2021/12/07 10:59:20;;;;;;;4.18;2.58;;;;;;;0.81;78.85;94092.53;5006203;28;20034;-79
2021/12/07 11:01:48;;;;;;;3.38;2.40;;;;;;;0.93;79.45;94095.78;5006057;28;20139;-81
2021/12/07 11:04:33;;;;;;;3.90;2.65;;;;;;;1.04;78.74;94097.38;5007775;28;20112;-81
2021/12/07 11:07:10;;;;;;;3.35;2.47;;;;;;;1.10;77.69;94097.59;5005564;28;20069;-79
2021/12/07 11:09:56;;;;;;;4.38;2.80;;;;;;;1.17;77.76;94086.41;5006701;28;20246;-82
2021/12/07 11:12:22;;;;;;;4.43;2.88;;;;;;;1.18;77.94;94082.78;5008140;28;20403;-81
2021/12/07 11:14:51;;;;;;;3.50;2.40;;;;;;;1.17;77.95;94081.13;4990495;28;20484;-80
2021/12/07 11:17:24;;;;;;;4.55;2.60;;;;;;;1.02;78.46;94063.19;5008252;28;20144;-78
2021/12/07 11:19:51;;;;;;;3.53;2.30;;;;;;;0.98;78.58;94064.50;5006260;28;20065;-79
2021/12/07 11:22:31;;;;;;;4.50;2.28;;;;;;;0.89;77.73;94060.13;5006736;28;20053;-81
2021/12/07 11:40:42;;;;;;;3.38;2.55;;;;;;;1.58;74.89;94070.06;5127687;27;1276560;-79
2021/12/07 11:43:17;;;;;;;3.70;2.75;;;;;;;1.54;74.82;94066.88;5144784;27;20035;-79
2021/12/07 11:45:43;;;;;;;4.25;2.72;;;;;;;1.48;74.63;94062.22;5144896;27;20019;-80
2021/12/07 11:48:09;;;;;;;4.05;2.85;;;;;;;1.39;76.01;94073.72;5145559;27;20030;-80
2021/12/07 11:50:41;;;;;;;3.03;2.38;;;;;;;1.39;75.98;94074.53;5144053;27;20027;-79
2021/12/07 11:53:11;;;;;;;3.80;2.42;;;;;;;1.28;75.31;94061.56;5127389;27;20023;-79
2021/12/07 11:55:37;;;;;;;5.18;2.63;;;;;;;1.30;75.38;94076.31;5144046;27;20037;-79
2021/12/07 11:58:04;;;;;;;3.80;2.67;;;;;;;1.25;75.26;94070.66;5145534;27;20042;-81
2021/12/07 12:00:36;;;;;;;3.97;2.75;;;;;;;1.30;76.10;94072.81;5144299;27;20019;-81
2021/12/07 12:03:03;;;;;;;2.80;2.33;;;;;;;1.37;75.89;94073.03;5144749;27;20491;-82
2021/12/07 12:05:28;;;;;;;4.28;3.03;;;;;;;1.32;74.98;94060.28;5145186;27;20087;-80
2021/12/07 12:07:56;;;;;;;4.57;2.80;;;;;;;1.35;74.61;94060.78;5143575;27;20030;-81
2021/12/07 12:10:21;;;;;;;4.05;2.80;;;;;;;1.35;75.10;94068.72;5110348;27;20480;-80
2021/12/07 12:13:07;;;;;;;4.18;2.83;;;;;;;1.23;74.21;94065.50;5124693;27;20038;-80
2021/12/07 12:15:53;;;;;;;4.07;2.78;;;;;;;1.14;75.41;94076.16;5145139;27;20027;-81
2021/12/07 12:18:21;;;;;;;7.93;2.80;;;;;;;1.14;74.73;94062.94;5144820;27;20026;-80
2021/12/07 12:50:26;;;;;;;3.72;2.88;;;;;;;2.32;69.45;94058.19;5045515;28;20391;-81
2021/12/07 12:52:57;;;;;;;5.80;3.00;;;;;;;2.09;70.14;94062.25;5044705;28;20030;-81
2021/12/07 12:55:52;;;;;;;3.80;2.58;;;;;;;1.80;71.03;94065.22;5048233;28;20541;-78
2021/12/07 12:58:30;;;;;;;5.30;2.90;;;;;;;1.72;70.94;94068.66;5045872;28;20045;-83
2021/12/07 13:00:57;;;;;;;4.10;2.78;;;;;;;1.62;70.94;94073.19;5047669;28;20025;-81
2021/12/07 13:03:22;;;;;;;3.72;2.90;;;;;;;1.55;71.12;94078.25;5047609;28;20036;-80
2021/12/07 13:06:02;;;;;;;3.25;2.70;;;;;;;1.46;71.41;94077.41;5045495;28;20483;-80
2021/12/07 13:08:28;;;;;;;4.47;2.97;;;;;;;1.34;71.77;94071.53;5042850;28;20614;-80
2021/12/07 13:10:58;;;;;;;4.50;3.13;;;;;;;1.26;71.05;94053.78;5044481;28;20017;-80
2021/12/07 13:13:32;;;;;;;4.90;3.75;;;;;;;1.13;71.59;94063.94;5044103;28;20033;-80
2021/12/07 13:15:58;;;;;;;6.07;3.83;;;;;;;1.12;71.82;94073.66;5044250;28;20155;-80
2021/12/07 13:18:27;;;;;;;6.63;3.85;;;;;;;1.09;72.11;94076.63;5043804;28;20029;-80
2021/12/07 13:20:52;;;;;;;5.18;3.50;;;;;;;1.08;72.32;94075.78;5043745;28;20025;-80
2021/12/07 13:23:18;;;;;;;4.13;3.40;;;;;;;1.07;71.82;94068.00;5044675;28;20029;-80
2021/12/07 13:25:48;;;;;;;5.88;3.88;;;;;;;1.16;71.94;94077.66;5043924;28;20021;-81
2021/12/07 13:28:25;;;;;;;6.05;3.97;;;;;;;1.14;71.97;94082.28;5045104;28;20048;-79
2021/12/07 13:30:52;;;;;;;6.15;3.90;;;;;;;1.10;71.43;94086.19;5043925;28;20029;-80
2021/12/07 13:33:35;;;;;;;5.80;3.70;;;;;;;1.13;71.28;94096.44;5044983;28;20040;-80
2021/12/07 13:36:01;;;;;;;;;;;;;;;1.15;70.97;94088.38;5044828;28;20025;-82
2021/12/07 13:38:28;;;;;;;6.93;4.38;;;;;;;1.07;71.34;94086.50;5042974;28;19924;-80
2021/12/07 13:41:15;;;;;;;8.60;4.10;;;;;;;0.94;71.16;94092.16;5043895;28;20033;-80
2021/12/07 13:43:46;;;;;;;6.22;3.88;;;;;;;0.98;71.49;94083.78;5042056;28;20029;-80
2021/12/07 13:46:21;;;;;;;4.60;3.33;;;;;;;0.97;71.92;94102.41;5044686;28;20075;-80
2021/12/07 13:48:48;;;;;;;5.20;3.60;;;;;;;0.92;71.94;94094.13;5043475;28;20050;-80
2021/12/07 13:51:15;;;;;;;6.28;3.17;;;;;;;0.89;72.48;94097.88;5029685;28;20076;-80
2021/12/07 13:53:41;;;;;;;6.15;3.50;;;;;;;0.94;71.95;94097.44;5030312;28;20041;-80
2021/12/07 13:56:07;;;;;;;5.15;3.53;;;;;;;0.92;72.37;94110.78;5030191;28;20065;-81
2021/12/07 13:58:55;;;;;;;5.47;3.75;;;;;;;0.84;72.43;94100.97;5013334;28;20486;-81
2021/12/07 14:01:20;;;;;;;6.35;3.72;;;;;;;0.87;72.30;94102.50;5029548;28;20030;-82
2021/12/07 14:03:46;;;;;;;5.10;3.40;;;;;;;0.79;71.79;94118.25;4997355;28;20025;-80
2021/12/07 14:06:12;;;;;;;5.60;3.78;;;;;;;0.80;72.24;94118.13;5012617;28;20053;-80
2021/12/07 14:08:37;;;;;;;4.78;3.58;;;;;;;0.65;72.95;94130.13;5028830;28;20029;-79
2021/12/07 14:11:02;;;;;;;5.55;3.83;;;;;;;0.67;72.65;94122.91;5030685;28;20083;-80
2021/12/07 14:13:28;;;;;;;5.45;3.53;;;;;;;0.59;72.76;94123.66;5011406;28;20116;-79
2021/12/07 14:15:53;;;;;;;4.15;3.15;;;;;;;0.55;73.14;94124.94;5030544;28;20469;-81